createdAt,value
2019-01-29T00:00:57.226Z,99.90
2019-01-29T00:02:32.354Z,99.90
2019-01-29T00:04:07.360Z,99.90
2019-01-29T00:05:42.226Z,99.90
2019-01-29T00:07:17.289Z,99.90
2019-01-29T00:08:52.150Z,99.90
2019-01-29T00:10:26.974Z,99.90
2019-01-29T00:12:02.003Z,99.90
2019-01-29T00:13:36.814Z,99.90
2019-01-29T00:15:11.838Z,99.90
2019-01-29T00:16:46.739Z,99.90
2019-01-29T00:18:21.794Z,99.90
2019-01-29T00:19:56.845Z,99.90
2019-01-29T00:21:32.129Z,99.90
2019-01-29T00:23:07.380Z,99.90
2019-01-29T00:24:42.167Z,99.90
2019-01-29T00:26:17.127Z,99.90
2019-01-29T00:27:52.074Z,99.90
2019-01-29T00:29:27.164Z,99.90
2019-01-29T00:31:02.204Z,99.90
2019-01-29T00:32:37.008Z,99.90
2019-01-29T00:34:11.951Z,99.90
2019-01-29T00:35:47.009Z,99.90
2019-01-29T00:37:21.829Z,99.90
2019-01-29T00:38:56.878Z,99.90
2019-01-29T00:40:31.688Z,99.90
2019-01-29T00:42:06.602Z,99.90
2019-01-29T00:43:41.471Z,99.90
2019-01-29T00:45:16.635Z,99.90
2019-01-29T00:46:51.716Z,99.90
2019-01-29T00:48:26.564Z,99.90
2019-01-29T00:50:01.585Z,99.90
2019-01-29T00:51:36.635Z,99.90
2019-01-29T00:53:11.462Z,99.90
2019-01-29T00:54:46.467Z,99.90
2019-01-29T00:56:21.518Z,99.90
2019-01-29T00:57:56.342Z,99.90
2019-01-29T00:59:31.128Z,99.90
2019-01-29T01:01:07.297Z,99.90
2019-01-29T01:02:42.163Z,99.90
2019-01-29T01:04:17.291Z,99.90
2019-01-29T01:05:52.316Z,99.90
2019-01-29T01:07:27.621Z,99.90
2019-01-29T01:09:02.425Z,99.90
2019-01-29T01:10:37.569Z,99.90
2019-01-29T01:12:12.707Z,99.90
2019-01-29T01:13:48.012Z,99.90
2019-01-29T01:15:23.333Z,99.90
2019-01-29T01:16:58.396Z,99.90
2019-01-29T01:18:33.190Z,99.90
2019-01-29T01:20:11.839Z,99.90
2019-01-29T01:21:46.621Z,99.90
2019-01-29T01:23:21.415Z,99.90
2019-01-29T01:24:56.208Z,99.90
2019-01-29T01:26:31.114Z,99.90
2019-01-29T01:28:06.073Z,99.90
2019-01-29T01:29:40.871Z,99.90
2019-01-29T01:31:15.663Z,99.90
2019-01-29T01:32:50.872Z,99.90
2019-01-29T01:34:25.936Z,99.90
2019-01-29T01:36:00.739Z,99.90
2019-01-29T01:37:35.860Z,99.90
2019-01-29T01:39:11.109Z,99.90
2019-01-29T01:40:46.168Z,99.90
2019-01-29T01:42:20.986Z,99.90
2019-01-29T01:43:56.026Z,99.90
2019-01-29T01:45:30.926Z,99.90
2019-01-29T01:47:05.882Z,99.90
2019-01-29T01:48:40.930Z,99.90
2019-01-29T01:50:16.279Z,99.90
2019-01-29T01:51:51.365Z,99.90
2019-01-29T01:53:26.286Z,99.90
2019-01-29T01:55:01.103Z,99.90
2019-01-29T01:56:36.178Z,99.90
2019-01-29T01:58:11.004Z,99.90
2019-01-29T01:59:45.802Z,99.90
2019-01-29T02:02:55.011Z,99.90
2019-01-29T02:04:30.120Z,99.90
2019-01-29T02:06:05.186Z,99.90
2019-01-29T02:07:40.204Z,99.90
2019-01-29T02:09:15.264Z,99.90
2019-01-29T02:10:50.318Z,99.90
2019-01-29T02:12:25.588Z,99.90
2019-01-29T02:14:00.984Z,99.90
2019-01-29T02:15:35.779Z,99.90
2019-01-29T02:17:10.895Z,99.90
2019-01-29T02:18:45.712Z,99.90
2019-01-29T02:20:20.827Z,99.90
2019-01-29T02:21:55.611Z,99.90
2019-01-29T02:23:30.680Z,99.90
2019-01-29T02:25:07.088Z,99.90
2019-01-29T02:29:51.601Z,99.90
2019-01-29T02:31:26.423Z,99.90
2019-01-29T02:33:01.224Z,99.90
2019-01-29T02:34:36.010Z,99.90
2019-01-29T02:36:10.823Z,99.90
2019-01-29T02:37:45.690Z,99.90
2019-01-29T02:39:20.482Z,99.90
2019-01-29T02:40:55.488Z,99.90
2019-01-29T02:42:30.308Z,99.90
2019-01-29T02:44:05.395Z,99.90
2019-01-29T02:45:40.187Z,99.90
2019-01-29T02:47:14.997Z,99.90
2019-01-29T02:48:50.097Z,99.90
2019-01-29T02:50:25.299Z,99.90
2019-01-29T02:52:34.158Z,99.90
2019-01-29T02:55:21.869Z,99.90
2019-01-29T02:57:33.177Z,99.90
2019-01-29T03:00:02.990Z,99.90
2019-01-29T03:04:43.644Z,99.90
2019-01-29T03:06:55.120Z,99.90
2019-01-29T03:10:59.531Z,99.90
2019-01-29T03:12:34.782Z,99.90
2019-01-29T03:14:10.035Z,99.90
2019-01-29T03:15:45.319Z,99.90
2019-01-29T03:17:20.894Z,99.90
2019-01-29T03:18:56.162Z,99.90
2019-01-29T03:20:31.432Z,99.90
2019-01-29T03:22:06.690Z,99.90
2019-01-29T03:23:41.817Z,99.90
2019-01-29T03:25:17.056Z,99.90
2019-01-29T03:26:51.860Z,99.90
2019-01-29T03:28:26.905Z,99.90
2019-01-29T03:30:02.166Z,99.90
2019-01-29T03:31:36.992Z,99.90
2019-01-29T03:33:11.770Z,99.90
2019-01-29T03:34:46.784Z,99.90
2019-01-29T03:36:21.824Z,99.90
2019-01-29T03:37:56.983Z,99.90
2019-01-29T03:39:31.744Z,99.90
2019-01-29T03:41:06.521Z,99.90
2019-01-29T03:42:41.594Z,99.90
2019-01-29T03:44:16.357Z,99.90
2019-01-29T03:45:51.498Z,99.90
2019-01-29T03:47:26.259Z,99.90
2019-01-29T03:49:01.029Z,99.90
2019-01-29T03:50:35.809Z,99.90
2019-01-29T03:52:10.587Z,99.90
2019-01-29T03:53:45.594Z,99.90
2019-01-29T03:55:20.446Z,99.90
2019-01-29T03:56:55.729Z,99.90
2019-01-29T03:58:30.499Z,99.90
2019-01-29T04:00:08.494Z,99.90
2019-01-29T04:01:43.635Z,99.90
2019-01-29T04:03:18.672Z,99.90
2019-01-29T04:04:53.439Z,99.90
2019-01-29T04:06:28.455Z,99.90
2019-01-29T04:08:03.305Z,99.90
2019-01-29T04:09:38.322Z,99.90
2019-01-29T04:11:13.092Z,99.90
2019-01-29T04:12:47.966Z,99.90
2019-01-29T04:14:22.999Z,99.90
2019-01-29T04:15:57.759Z,99.90
2019-01-29T04:17:32.843Z,99.90
2019-01-29T04:19:07.632Z,99.90
2019-01-29T04:20:42.389Z,99.90
2019-01-29T04:22:17.546Z,99.90
2019-01-29T04:23:52.300Z,99.90
2019-01-29T04:25:27.106Z,99.90
2019-01-29T04:27:01.908Z,99.90
2019-01-29T04:28:36.911Z,99.90
2019-01-29T04:30:15.364Z,99.90
2019-01-29T04:31:50.137Z,99.90
2019-01-29T04:33:24.963Z,99.90
2019-01-29T04:34:59.987Z,99.90
2019-01-29T04:36:34.753Z,99.90
2019-01-29T04:38:09.887Z,99.90
2019-01-29T04:39:44.881Z,99.90
2019-01-29T04:41:19.913Z,99.90
2019-01-29T04:42:54.675Z,99.90
2019-01-29T04:44:29.448Z,99.90
2019-01-29T04:46:04.521Z,99.90
2019-01-29T04:47:39.623Z,99.90
2019-01-29T04:49:14.642Z,99.90
2019-01-29T04:50:49.756Z,99.90
2019-01-29T04:52:25.040Z,99.90
2019-01-29T04:54:00.077Z,99.90
2019-01-29T04:55:35.144Z,99.90
2019-01-29T04:57:09.944Z,99.90
2019-01-29T04:58:44.706Z,99.90
2019-01-29T05:00:23.198Z,99.90
2019-01-29T05:01:58.193Z,99.90
2019-01-29T05:03:33.299Z,99.90
2019-01-29T05:05:10.258Z,99.90
2019-01-29T05:06:45.042Z,99.90
2019-01-29T05:08:19.844Z,99.90
2019-01-29T05:09:54.638Z,99.90
2019-01-29T05:11:29.659Z,99.90
2019-01-29T05:13:04.631Z,99.90
2019-01-29T05:14:39.415Z,99.90
2019-01-29T05:16:14.491Z,99.90
2019-01-29T05:17:49.337Z,99.90
2019-01-29T05:19:24.459Z,99.90
2019-01-29T05:20:59.574Z,99.90
2019-01-29T05:22:34.377Z,99.90
2019-01-29T05:24:09.147Z,99.90
2019-01-29T05:25:43.911Z,99.90
2019-01-29T05:27:18.940Z,99.90
2019-01-29T05:28:53.972Z,99.90
2019-01-29T05:30:29.172Z,99.90
2019-01-29T05:32:04.437Z,99.90
2019-01-29T05:33:41.537Z,99.90
2019-01-29T05:35:16.134Z,99.90
2019-01-29T05:36:51.207Z,99.90
2019-01-29T05:38:26.223Z,99.90
2019-01-29T05:40:00.991Z,99.90
2019-01-29T05:41:35.770Z,99.90
2019-01-29T05:43:10.526Z,99.90
2019-01-29T05:44:45.577Z,99.90
2019-01-29T05:46:20.626Z,99.90
2019-01-29T05:47:55.657Z,99.90
2019-01-29T05:49:30.538Z,99.90
2019-01-29T05:51:05.376Z,99.90
2019-01-29T05:52:40.515Z,99.90
2019-01-29T05:54:16.451Z,99.90
2019-01-29T05:55:51.569Z,99.90
2019-01-29T05:57:26.864Z,99.90
2019-01-29T05:59:01.982Z,99.90
2019-01-29T06:00:39.145Z,99.90
2019-01-29T06:02:14.244Z,99.90
2019-01-29T06:03:49.015Z,99.90
2019-01-29T06:05:24.716Z,99.90
2019-01-29T06:06:59.489Z,99.90
2019-01-29T06:08:34.262Z,99.90
2019-01-29T06:10:09.985Z,99.90
2019-01-29T06:11:44.774Z,99.90
2019-01-29T06:13:19.613Z,99.90
2019-01-29T06:14:54.377Z,99.90
2019-01-29T06:16:29.277Z,99.90
2019-01-29T06:18:04.579Z,99.90
2019-01-29T06:19:39.330Z,99.90
2019-01-29T06:21:14.362Z,99.90
2019-01-29T06:22:49.657Z,99.90
2019-01-29T06:24:25.783Z,99.90
2019-01-29T06:26:01.046Z,99.90
2019-01-29T06:27:35.876Z,99.90
2019-01-29T06:29:10.676Z,99.90
2019-01-29T06:30:45.728Z,99.90
2019-01-29T06:32:20.503Z,99.90
2019-01-29T06:33:55.293Z,99.90
2019-01-29T06:35:30.099Z,99.90
2019-01-29T06:37:04.957Z,99.90
2019-01-29T06:38:40.013Z,99.90
2019-01-29T06:40:18.662Z,99.90
2019-01-29T06:41:53.573Z,99.90
2019-01-29T06:43:28.409Z,99.90
2019-01-29T06:45:03.211Z,99.90
2019-01-29T06:46:38.238Z,99.90
2019-01-29T06:48:13.426Z,99.90
2019-01-29T06:49:48.429Z,99.90
2019-01-29T06:51:23.308Z,99.90
2019-01-29T06:52:58.612Z,99.90
2019-01-29T06:54:34.467Z,99.90
2019-01-29T06:56:09.223Z,99.90
2019-01-29T06:57:44.092Z,99.90
2019-01-29T06:59:19.340Z,99.90
2019-01-29T07:00:54.133Z,99.90
2019-01-29T07:02:29.063Z,99.90
2019-01-29T07:04:03.945Z,99.90
2019-01-29T07:05:38.861Z,99.90
2019-01-29T07:07:13.654Z,99.90
2019-01-29T07:08:48.473Z,99.90
2019-01-29T07:10:23.565Z,99.90
2019-01-29T07:12:02.199Z,99.90
2019-01-29T07:13:37.254Z,99.90
2019-01-29T07:15:35.116Z,99.90
2019-01-29T07:17:30.020Z,99.90
2019-01-29T07:19:17.999Z,99.90
2019-01-29T07:20:52.913Z,99.90
2019-01-29T07:22:27.670Z,99.90
2019-01-29T07:24:02.634Z,99.90
2019-01-29T07:25:37.552Z,99.90
2019-01-29T07:27:12.580Z,99.90
2019-01-29T07:28:47.370Z,99.90
2019-01-29T07:30:22.582Z,99.90
2019-01-29T07:31:57.696Z,99.90
2019-01-29T07:33:32.482Z,99.90
2019-01-29T07:35:08.284Z,99.90
2019-01-29T07:36:43.439Z,99.90
2019-01-29T07:38:18.218Z,99.90
2019-01-29T07:39:53.028Z,99.90
2019-01-29T07:41:27.985Z,99.90
2019-01-29T07:43:03.249Z,99.90
2019-01-29T07:44:38.346Z,99.90
2019-01-29T07:46:13.471Z,99.90
2019-01-29T07:47:48.501Z,99.90
2019-01-29T07:49:23.659Z,99.90
2019-01-29T07:50:58.870Z,99.90
2019-01-29T07:52:33.703Z,99.90
2019-01-29T07:54:08.810Z,99.90
2019-01-29T07:55:43.650Z,99.90
2019-01-29T07:57:18.459Z,99.90
2019-01-29T07:58:53.306Z,99.90
2019-01-29T08:00:28.336Z,99.90
2019-01-29T08:02:03.426Z,99.90
2019-01-29T08:03:38.631Z,99.90
2019-01-29T08:05:13.644Z,99.90
2019-01-29T08:06:48.494Z,99.90
2019-01-29T08:08:23.327Z,99.90
2019-01-29T08:09:58.365Z,99.90
2019-01-29T08:11:33.146Z,99.90
2019-01-29T08:13:08.357Z,99.90
2019-01-29T08:14:43.141Z,99.90
2019-01-29T08:16:18.610Z,99.90
2019-01-29T08:17:53.463Z,99.90
2019-01-29T08:19:28.331Z,99.90
2019-01-29T08:21:03.091Z,99.90
2019-01-29T08:22:37.876Z,99.90
2019-01-29T08:24:12.920Z,99.90
2019-01-29T08:25:48.301Z,99.90
2019-01-29T08:27:23.162Z,99.90
2019-01-29T08:28:58.253Z,99.90
2019-01-29T08:30:33.036Z,99.90
2019-01-29T08:32:08.007Z,99.90
2019-01-29T08:33:43.102Z,99.90
2019-01-29T08:35:18.047Z,99.90
2019-01-29T08:36:52.967Z,99.90
2019-01-29T08:38:28.216Z,99.90
2019-01-29T08:40:02.991Z,99.90
2019-01-29T08:41:37.843Z,99.90
2019-01-29T08:43:13.241Z,99.90
2019-01-29T08:44:48.034Z,99.90
2019-01-29T08:46:23.453Z,99.90
2019-01-29T08:47:58.374Z,99.90
2019-01-29T08:49:33.337Z,99.90
2019-01-29T08:51:08.354Z,99.90
2019-01-29T08:52:43.142Z,99.90
2019-01-29T08:54:18.320Z,99.90
2019-01-29T08:55:53.426Z,99.90
2019-01-29T08:57:28.590Z,99.90
2019-01-29T08:59:03.599Z,99.90
2019-01-29T09:00:38.553Z,99.90
2019-01-29T09:02:13.439Z,99.90
2019-01-29T09:03:48.511Z,99.90
2019-01-29T09:05:23.274Z,99.90
2019-01-29T09:06:58.129Z,99.90
2019-01-29T09:08:33.086Z,99.90
2019-01-29T09:10:11.179Z,99.90
2019-01-29T09:11:46.222Z,99.90
2019-01-29T09:13:21.479Z,99.90
2019-01-29T09:14:56.261Z,99.90
2019-01-29T09:16:31.630Z,99.90
2019-01-29T09:18:07.095Z,99.90
2019-01-29T09:19:42.066Z,99.90
2019-01-29T09:21:17.134Z,99.90
2019-01-29T09:22:52.062Z,99.90
2019-01-29T09:24:27.209Z,99.90
2019-01-29T09:26:02.582Z,99.90
2019-01-29T09:27:37.800Z,99.90
2019-01-29T09:29:17.667Z,99.90
2019-01-29T09:30:49.083Z,99.90
2019-01-29T09:32:24.053Z,99.90
2019-01-29T09:33:59.216Z,99.90
2019-01-29T09:35:34.233Z,99.90
2019-01-29T09:37:09.048Z,99.90
2019-01-29T09:38:44.091Z,99.90
2019-01-29T09:40:20.139Z,99.90
2019-01-29T09:41:55.244Z,99.90
2019-01-29T09:43:30.119Z,99.90
2019-01-29T09:45:06.319Z,99.90
2019-01-29T09:46:41.723Z,99.90
2019-01-29T09:48:16.853Z,99.90
2019-01-29T09:49:52.153Z,99.90
2019-01-29T09:51:27.181Z,99.90
2019-01-29T09:53:02.097Z,99.90
2019-01-29T09:54:37.068Z,99.90
2019-01-29T09:56:12.259Z,99.90
2019-01-29T09:57:47.082Z,99.90
2019-01-29T09:59:22.113Z,99.90
2019-01-29T10:00:57.221Z,99.90
2019-01-29T10:02:31.990Z,99.90
2019-01-29T10:04:07.641Z,99.90
2019-01-29T10:05:43.244Z,99.90
2019-01-29T10:07:18.203Z,99.90
2019-01-29T10:08:53.384Z,99.90
2019-01-29T10:10:28.653Z,99.50
2019-01-29T10:12:03.571Z,99.90
2019-01-29T10:13:38.357Z,99.90
2019-01-29T10:15:18.288Z,99.90
2019-01-29T10:16:53.592Z,99.90
2019-01-29T10:18:28.368Z,99.90
2019-01-29T10:20:03.511Z,99.90
2019-01-29T10:21:38.488Z,99.90
2019-01-29T10:23:13.981Z,99.90
2019-01-29T10:24:48.825Z,99.70
2019-01-29T10:26:24.204Z,99.90
2019-01-29T10:27:59.232Z,99.80
2019-01-29T10:29:34.001Z,99.50
2019-01-29T10:31:09.156Z,99.40
2019-01-29T10:32:46.866Z,98.90
2019-01-29T10:34:21.682Z,99.10
2019-01-29T10:35:56.463Z,98.90
2019-01-29T10:37:31.518Z,98.90
2019-01-29T10:39:10.554Z,98.20
2019-01-29T10:40:45.411Z,98.30
2019-01-29T10:42:20.663Z,98.00
2019-01-29T10:43:55.609Z,98.30
2019-01-29T10:45:31.020Z,98.60
2019-01-29T10:47:06.093Z,98.00
2019-01-29T10:48:40.891Z,98.10
2019-01-29T10:50:22.010Z,98.30
2019-01-29T10:51:56.885Z,97.90
2019-01-29T10:53:31.670Z,98.50
2019-01-29T10:55:08.032Z,98.30
2019-01-29T10:56:43.115Z,98.30
2019-01-29T10:58:18.010Z,98.60
2019-01-29T10:59:52.871Z,98.60
2019-01-29T11:01:28.076Z,98.60
2019-01-29T11:03:03.840Z,97.80
2019-01-29T11:04:38.902Z,97.50
2019-01-29T11:06:14.192Z,98.20
2019-01-29T11:07:49.213Z,97.90
2019-01-29T11:09:25.603Z,98.50
2019-01-29T11:11:01.008Z,98.10
2019-01-29T11:12:36.089Z,97.80
2019-01-29T11:14:10.941Z,97.80
2019-01-29T11:15:45.986Z,97.70
2019-01-29T11:17:21.056Z,98.50
2019-01-29T11:19:03.181Z,98.20
2019-01-29T11:20:33.315Z,98.70
2019-01-29T11:22:08.275Z,98.10
2019-01-29T11:23:43.434Z,98.60
2019-01-29T11:25:22.133Z,98.30
2019-01-29T11:26:57.336Z,98.20
2019-01-29T11:28:32.338Z,98.80
2019-01-29T11:30:08.723Z,98.80
2019-01-29T11:31:43.511Z,99.10
2019-01-29T11:33:18.409Z,98.40
2019-01-29T11:34:53.364Z,98.80
2019-01-29T11:36:28.538Z,98.80
2019-01-29T11:38:03.701Z,98.50
2019-01-29T11:39:38.806Z,98.40
2019-01-29T11:41:14.225Z,98.40
2019-01-29T11:42:49.160Z,98.40
2019-01-29T11:44:24.552Z,97.90
2019-01-29T11:46:01.123Z,98.00
2019-01-29T11:47:36.187Z,97.50
2019-01-29T11:49:11.103Z,98.20
2019-01-29T11:50:46.250Z,97.70
2019-01-29T11:52:21.568Z,97.30
2019-01-29T11:53:56.631Z,97.50
2019-01-29T11:55:31.935Z,97.30
2019-01-29T11:57:06.880Z,97.60
2019-01-29T11:58:42.042Z,97.60
2019-01-29T12:00:26.044Z,97.70
2019-01-29T12:02:00.844Z,97.90
2019-01-29T12:03:35.769Z,97.10
2019-01-29T12:05:10.993Z,96.90
2019-01-29T12:06:46.044Z,96.70
2019-01-29T12:08:21.245Z,96.10
2019-01-29T12:09:56.623Z,96.10
2019-01-29T12:11:31.797Z,96.20
2019-01-29T12:13:07.338Z,96.60
2019-01-29T12:14:42.121Z,96.20
2019-01-29T12:16:17.073Z,97.20
2019-01-29T12:17:52.307Z,96.60
2019-01-29T12:19:27.369Z,96.30
2019-01-29T12:21:02.216Z,96.80
2019-01-29T12:22:37.534Z,96.50
2019-01-29T12:24:12.309Z,95.90
2019-01-29T12:25:47.554Z,96.50
2019-01-29T12:27:22.413Z,96.50
2019-01-29T12:28:57.472Z,96.50
2019-01-29T12:30:32.788Z,96.70
2019-01-29T12:32:07.784Z,96.50
2019-01-29T12:33:42.936Z,96.50
2019-01-29T12:35:19.407Z,96.50
2019-01-29T12:36:54.624Z,97.10
2019-01-29T12:38:29.563Z,97.30
2019-01-29T12:40:05.939Z,97.10
2019-01-29T12:41:40.825Z,96.70
2019-01-29T12:43:15.863Z,96.90
2019-01-29T12:44:51.005Z,96.70
2019-01-29T12:46:25.857Z,96.90
2019-01-29T12:48:00.761Z,97.00
2019-01-29T12:49:35.890Z,97.30
2019-01-29T12:51:23.053Z,97.50
2019-01-29T12:53:06.421Z,97.40
2019-01-29T12:54:41.354Z,97.60
2019-01-29T12:56:21.416Z,97.50
2019-01-29T12:57:52.822Z,97.40
2019-01-29T12:59:27.881Z,97.40
2019-01-29T13:01:02.741Z,97.10
2019-01-29T13:02:37.623Z,97.40
2019-01-29T13:04:12.504Z,97.20
2019-01-29T13:05:47.386Z,97.30
2019-01-29T13:07:22.505Z,97.20
2019-01-29T13:08:57.713Z,97.70
2019-01-29T13:10:32.838Z,98.00
2019-01-29T13:12:08.131Z,97.60
2019-01-29T13:13:42.953Z,97.30
2019-01-29T13:15:22.093Z,97.40
2019-01-29T13:16:57.002Z,97.40
2019-01-29T13:18:32.523Z,97.50
2019-01-29T13:20:08.538Z,97.60
2019-01-29T13:21:43.979Z,97.40
2019-01-29T13:23:19.327Z,96.80
2019-01-29T13:24:54.224Z,97.20
2019-01-29T13:26:30.225Z,97.40
2019-01-29T13:28:06.650Z,97.30
2019-01-29T13:29:41.651Z,97.20
2019-01-29T13:31:17.076Z,96.80
2019-01-29T13:32:52.464Z,96.90
2019-01-29T13:34:28.927Z,96.90
2019-01-29T13:36:07.141Z,96.60
2019-01-29T13:37:42.423Z,96.50
2019-01-29T13:39:17.580Z,96.90
2019-01-29T13:40:52.804Z,96.60
2019-01-29T13:42:28.038Z,97.00
2019-01-29T13:44:02.876Z,97.20
2019-01-29T13:45:38.679Z,96.70
2019-01-29T13:47:13.500Z,96.40
2019-01-29T13:48:48.506Z,96.50
2019-01-29T13:50:36.397Z,96.40
2019-01-29T13:52:11.528Z,96.80
2019-01-29T13:53:46.637Z,97.30
2019-01-29T13:55:21.752Z,97.20
2019-01-29T13:56:56.821Z,96.10
2019-01-29T13:58:32.058Z,96.30
2019-01-29T14:00:21.716Z,96.50
2019-01-29T14:01:57.813Z,96.30
2019-01-29T14:03:33.210Z,96.60
2019-01-29T14:05:09.034Z,96.70
2019-01-29T14:06:43.850Z,96.70
2019-01-29T14:08:19.441Z,96.90
2019-01-29T14:09:54.235Z,96.80
2019-01-29T14:11:29.119Z,96.90
2019-01-29T14:13:03.991Z,96.70
2019-01-29T14:14:39.267Z,96.40
2019-01-29T14:16:14.818Z,96.90
2019-01-29T14:17:49.721Z,97.10
2019-01-29T14:19:25.129Z,97.20
2019-01-29T14:21:01.386Z,96.60
2019-01-29T14:22:36.246Z,96.50
2019-01-29T14:24:11.318Z,96.90
2019-01-29T14:25:46.349Z,96.80
2019-01-29T14:27:21.497Z,96.70
2019-01-29T14:28:56.606Z,96.60
2019-01-29T14:30:31.594Z,96.70
2019-01-29T14:32:06.882Z,96.90
2019-01-29T14:33:41.692Z,96.90
2019-01-29T14:35:17.143Z,97.00
2019-01-29T14:36:52.227Z,97.00
2019-01-29T14:39:21.680Z,96.80
2019-01-29T14:40:56.774Z,96.50
2019-01-29T14:42:31.853Z,96.40
2019-01-29T14:44:12.297Z,96.90
2019-01-29T14:45:48.321Z,96.30
2019-01-29T14:47:23.213Z,96.30
2019-01-29T14:48:58.384Z,96.80
2019-01-29T14:50:33.487Z,96.90
2019-01-29T14:52:08.485Z,97.00
2019-01-29T14:53:43.631Z,97.00
2019-01-29T14:55:20.263Z,96.80
2019-01-29T14:56:57.123Z,97.10
2019-01-29T14:58:31.826Z,96.90
2019-01-29T15:00:17.107Z,97.30
2019-01-29T15:01:52.067Z,97.20
2019-01-29T15:03:27.189Z,96.90
2019-01-29T15:05:02.299Z,97.10
2019-01-29T15:06:37.626Z,97.00
2019-01-29T15:08:12.415Z,97.40
2019-01-29T15:09:47.518Z,97.50
2019-01-29T15:11:22.735Z,97.60
2019-01-29T15:12:57.884Z,97.30
2019-01-29T15:14:33.078Z,97.60
2019-01-29T15:16:27.591Z,97.90
2019-01-29T15:18:12.204Z,97.70
2019-01-29T15:19:47.007Z,97.60
2019-01-29T15:21:21.876Z,97.50
2019-01-29T15:22:57.035Z,97.50
2019-01-29T15:24:31.830Z,97.40
2019-01-29T15:26:06.979Z,97.50
2019-01-29T15:27:42.999Z,97.40
2019-01-29T15:29:18.087Z,97.50
2019-01-29T15:30:53.022Z,97.20
2019-01-29T15:32:27.810Z,97.40
2019-01-29T15:34:02.882Z,97.50
2019-01-29T15:35:37.944Z,97.50
2019-01-29T15:37:12.793Z,97.70
2019-01-29T15:38:47.901Z,98.20
2019-01-29T15:40:22.887Z,98.90
2019-01-29T15:41:57.730Z,98.50
2019-01-29T15:43:32.597Z,98.50
2019-01-29T15:45:13.475Z,98.70
2019-01-29T15:46:48.371Z,98.90
2019-01-29T15:48:23.323Z,99.10
2019-01-29T15:49:58.392Z,99.30
2019-01-29T15:51:33.247Z,99.70
2019-01-29T15:53:08.373Z,99.90
2019-01-29T15:54:43.471Z,99.90
2019-01-29T15:56:18.490Z,99.90
2019-01-29T15:57:53.481Z,99.90
2019-01-29T15:59:28.295Z,99.90
2019-01-29T16:01:03.154Z,99.90
2019-01-29T16:02:37.999Z,99.90
2019-01-29T16:04:12.799Z,99.90
2019-01-29T16:05:47.974Z,99.90
2019-01-29T16:07:22.800Z,99.90
2019-01-29T16:20:03.835Z,99.90
2019-01-29T16:21:38.980Z,99.90
2019-01-29T16:23:13.891Z,99.90
2019-01-29T16:24:48.695Z,99.90
2019-01-29T16:26:23.844Z,99.90
2019-01-29T16:27:58.717Z,99.90
2019-01-29T16:29:34.211Z,99.90
2019-01-29T16:31:09.136Z,99.90
2019-01-29T16:32:44.262Z,99.90
2019-01-29T16:34:19.388Z,99.90
2019-01-29T16:35:54.530Z,99.90
2019-01-29T16:37:29.318Z,99.90
2019-01-29T16:39:07.213Z,99.90
2019-01-29T16:40:42.657Z,99.90
2019-01-29T16:42:17.461Z,99.90
2019-01-29T16:43:52.339Z,99.90
2019-01-29T16:45:30.686Z,99.90
2019-01-29T16:47:06.047Z,99.90
2019-01-29T16:48:40.842Z,99.90
2019-01-29T16:50:16.741Z,99.90
2019-01-29T16:51:51.978Z,99.90
2019-01-29T16:53:26.853Z,99.90
2019-01-29T16:55:02.032Z,99.90
2019-01-29T16:56:37.249Z,99.90
2019-01-29T16:58:12.594Z,99.90
2019-01-29T16:59:47.402Z,99.90
2019-01-29T17:01:22.342Z,99.90
2019-01-29T17:02:57.537Z,99.90
2019-01-29T17:04:32.583Z,99.90
2019-01-29T17:06:07.398Z,99.90
2019-01-29T17:07:42.570Z,99.90
2019-01-29T17:09:17.443Z,99.90
2019-01-29T17:10:52.247Z,99.90
2019-01-29T17:12:27.358Z,99.90
2019-01-29T17:14:02.175Z,99.90
2019-01-29T17:15:37.139Z,99.90
2019-01-29T17:17:12.046Z,99.90
2019-01-29T17:18:46.848Z,99.90
2019-01-29T17:20:34.194Z,99.90
2019-01-29T17:22:09.262Z,99.90
2019-01-29T17:23:44.325Z,99.90
2019-01-29T17:25:19.457Z,99.90
2019-01-29T17:26:54.917Z,99.90
2019-01-29T17:28:29.789Z,99.90
2019-01-29T17:30:06.087Z,99.90
2019-01-29T17:31:41.312Z,99.90
2019-01-29T17:33:18.067Z,99.90
2019-01-29T17:34:52.857Z,99.90
2019-01-29T17:36:27.615Z,99.90
2019-01-29T17:38:02.690Z,99.90
2019-01-29T17:39:37.991Z,99.90
2019-01-29T17:41:13.098Z,99.90
2019-01-29T17:42:47.879Z,99.90
2019-01-29T17:44:22.723Z,99.90
2019-01-29T17:45:58.111Z,99.90
2019-01-29T17:47:32.879Z,99.90
2019-01-29T17:49:07.670Z,99.90
2019-01-29T17:50:44.469Z,99.90
2019-01-29T17:52:19.345Z,99.90
2019-01-29T17:53:54.148Z,99.90
2019-01-29T17:55:31.501Z,99.90
2019-01-29T17:57:06.781Z,99.90
2019-01-29T17:58:41.613Z,99.90
2019-01-29T18:00:21.212Z,99.90
2019-01-29T18:01:56.069Z,99.90
2019-01-29T18:03:31.290Z,99.90
2019-01-29T18:05:07.869Z,99.90
2019-01-29T18:06:42.660Z,99.90
2019-01-29T18:08:17.508Z,99.90
2019-01-29T18:09:52.942Z,99.90
2019-01-29T18:11:28.070Z,99.90
2019-01-29T18:13:03.196Z,99.90
2019-01-29T18:14:38.334Z,99.90
2019-01-29T18:16:14.413Z,99.90
2019-01-29T18:17:49.463Z,99.90
2019-01-29T18:19:24.550Z,99.90
2019-01-29T18:20:59.673Z,99.90
2019-01-29T18:22:34.548Z,99.90
2019-01-29T18:24:09.349Z,99.90
2019-01-29T18:25:44.381Z,99.90
2019-01-29T18:27:19.216Z,99.90
2019-01-29T18:28:54.714Z,99.90
2019-01-29T18:30:32.336Z,99.90
2019-01-29T18:32:07.304Z,99.90
2019-01-29T18:33:42.329Z,99.90
2019-01-29T18:35:17.349Z,99.90
2019-01-29T18:36:52.229Z,99.90
2019-01-29T18:38:27.034Z,99.90
2019-01-29T18:40:01.835Z,99.90
2019-01-29T18:41:36.637Z,99.90
2019-01-29T18:43:11.808Z,99.90
2019-01-29T18:44:46.587Z,99.90
2019-01-29T18:46:21.384Z,99.90
2019-01-29T18:47:56.572Z,99.90
2019-01-29T18:49:31.359Z,99.90
2019-01-29T18:51:06.386Z,99.90
2019-01-29T18:52:41.389Z,99.90
2019-01-29T18:54:16.266Z,99.90
2019-01-29T18:55:51.305Z,99.90
2019-01-29T18:57:26.609Z,99.90
2019-01-29T18:59:01.677Z,99.90
2019-01-29T19:00:36.712Z,99.90
2019-01-29T19:02:12.347Z,99.90
2019-01-29T19:03:49.704Z,99.90
2019-01-29T19:05:24.896Z,99.90
2019-01-29T19:06:59.849Z,99.90
2019-01-29T19:08:37.795Z,99.90
2019-01-29T19:10:16.231Z,99.90
2019-01-29T19:11:51.017Z,99.90
2019-01-29T19:13:26.246Z,99.90
2019-01-29T19:15:01.045Z,99.90
2019-01-29T19:16:35.849Z,99.90
2019-01-29T19:18:11.019Z,99.90
2019-01-29T19:19:46.586Z,99.90
2019-01-29T19:21:22.008Z,99.90
2019-01-29T19:22:57.240Z,99.90
2019-01-29T19:24:32.038Z,99.90
2019-01-29T19:26:06.822Z,99.90
2019-01-29T19:27:42.107Z,99.90
2019-01-29T19:29:17.327Z,99.90
2019-01-29T19:30:52.118Z,99.90
2019-01-29T19:32:28.117Z,99.90
2019-01-29T19:34:02.948Z,99.90
2019-01-29T19:35:38.173Z,99.90
2019-01-29T19:37:12.981Z,99.90
2019-01-29T19:38:48.044Z,99.90
2019-01-29T19:40:23.104Z,99.90
2019-01-29T19:41:57.958Z,99.90
2019-01-29T19:43:33.106Z,99.90
2019-01-29T19:45:13.285Z,99.90
2019-01-29T19:46:48.590Z,99.90
2019-01-29T19:48:23.361Z,99.90
2019-01-29T19:49:58.175Z,99.90
2019-01-29T19:51:33.783Z,99.90
2019-01-29T19:53:08.707Z,99.90
2019-01-29T19:54:43.834Z,99.90
2019-01-29T19:56:18.901Z,99.90
2019-01-29T19:57:54.053Z,99.90
2019-01-29T19:59:29.072Z,99.90
2019-01-29T20:01:04.253Z,99.90
2019-01-29T20:02:39.381Z,99.90
2019-01-29T20:04:15.447Z,99.90
2019-01-29T20:05:50.263Z,99.90
2019-01-29T20:07:25.516Z,99.90
2019-01-29T20:09:00.342Z,99.90
2019-01-29T20:10:35.775Z,99.90
2019-01-29T20:12:11.184Z,99.90
2019-01-29T20:13:46.112Z,99.90
2019-01-29T20:15:21.735Z,99.90
2019-01-29T20:16:56.788Z,99.90
2019-01-29T20:18:31.891Z,99.90
2019-01-29T20:20:08.301Z,99.90
2019-01-29T20:21:43.341Z,99.90
2019-01-29T20:23:18.141Z,99.90
2019-01-29T20:24:53.284Z,99.90
2019-01-29T20:26:28.184Z,99.90
2019-01-29T20:28:03.211Z,99.90
2019-01-29T20:29:38.020Z,99.90
2019-01-29T20:31:14.909Z,99.90
2019-01-29T20:32:53.460Z,99.90
2019-01-29T20:34:26.492Z,99.90
2019-01-29T20:36:01.427Z,99.90
2019-01-29T20:37:36.492Z,99.90
2019-01-29T20:39:11.746Z,99.90
2019-01-29T20:40:46.537Z,99.90
2019-01-29T20:42:21.393Z,99.90
2019-01-29T20:43:56.163Z,99.90
2019-01-29T20:45:31.399Z,99.90
2019-01-29T20:47:06.266Z,99.90
2019-01-29T20:48:41.054Z,99.90
2019-01-29T20:50:22.876Z,99.90
2019-01-29T20:51:57.651Z,99.90
2019-01-29T20:53:33.075Z,99.90
2019-01-29T20:55:11.629Z,99.90